Blounts Creek, North Carolina
Current Conditions -  °F | °C
As of 12:15 PM on Friday 24 Oct 2014 (Local Time) from KOCW Reporting Station
Clear Clear  
Wind Chill: 62°   Ceiling: Unl
Heat Index: 62°   Visibility: 10mi
Dew Point: 47°   Wind: 7mph
Humidity: 57%   Direction: 350°N
Pressure: 30.03"   Gusts: NA
Location:  35.35°N, 76.96°W
Report Text: KOCW 241615Z AUTO 35006KT 10SM CLR 17/08 A3003 RMK AO2 T01660081
Loading
Personal Weather Stations






























Interactive Weather Map
Tropical Storm Tracking
New forecast layout! Learn more

10-Day Weather Forecast

Advertisements
Track Severe Weather on mobile